Time;durP1;ratioP1;P1;durP2;ratioP2;P2;SDS_P1;SDS_P2;PMS_P1;PMS_P2;Temp;Humidity;BMP_temperature;BMP_pressure;BME280_temperature;BME280_humidity;BME280_pressure;Samples;Min_cycle;Max_cycle;Signal;HPM_P1;HPM_P2
2023/11/21 00:01:14;;;;;;;1999.90;999.90;;;;;;;2.58;77.03;96202.81;5113206;28;20092;-61
2023/11/21 00:03:43;;;;;;;1999.90;999.90;;;;;;;2.51;77.90;96207.22;5113285;28;20043;-62
2023/11/21 00:06:10;;;;;;;1999.90;999.90;;;;;;;2.43;78.05;96209.88;5112962;28;20051;-64
2023/11/21 00:08:38;;;;;;;1999.90;999.90;;;;;;;2.45;77.86;96204.69;5116800;28;20086;-62
2023/11/21 00:11:06;;;;;;;1999.90;999.90;;;;;;;2.43;77.50;96203.84;5117144;28;20108;-64
2023/11/21 00:13:33;;;;;;;1999.90;999.90;;;;;;;2.30;78.34;96197.97;5117280;28;20405;-62
2023/11/21 00:16:00;;;;;;;1999.90;999.90;;;;;;;2.21;80.51;96207.53;5117281;28;20496;-65
2023/11/21 00:18:27;;;;;;;1999.90;999.90;;;;;;;2.26;81.25;96198.00;5116733;28;20047;-61
2023/11/21 00:20:58;;;;;;;1999.90;999.90;;;;;;;2.35;80.92;96201.38;5116887;28;20055;-62
2023/11/21 00:23:25;;;;;;;1999.90;999.90;;;;;;;2.35;80.37;96197.03;5116965;28;20135;-63
2023/11/21 00:25:52;;;;;;;1999.90;999.90;;;;;;;2.41;79.89;96201.31;5116764;28;20130;-62
2023/11/21 00:28:19;;;;;;;1999.90;999.90;;;;;;;2.38;79.76;96203.91;5116682;28;20513;-64
2023/11/21 00:30:47;;;;;;;1999.90;999.90;;;;;;;2.45;79.81;96205.56;5116707;28;20048;-65
2023/11/21 00:33:14;;;;;;;1999.90;999.90;;;;;;;2.52;79.12;96208.91;5116764;28;20082;-64
2023/11/21 00:35:41;;;;;;;1999.90;999.90;;;;;;;2.55;78.88;96206.28;5116423;28;20048;-63
2023/11/21 00:38:09;;;;;;;1999.90;999.90;;;;;;;2.60;78.34;96212.28;5116480;28;20083;-63
2023/11/21 00:40:37;;;;;;;1999.90;999.90;;;;;;;2.65;78.12;96207.06;5116523;28;20086;-65
2023/11/21 00:43:05;;;;;;;1999.90;999.90;;;;;;;2.65;78.04;96207.91;5116490;28;20054;-63
2023/11/21 00:45:32;;;;;;;1999.90;999.90;;;;;;;2.65;77.68;96212.22;5116499;28;20101;-64
2023/11/21 00:47:59;;;;;;;1999.90;999.90;;;;;;;2.67;78.38;96214.78;5116333;28;20130;-62
2023/11/21 00:50:27;;;;;;;1999.90;999.90;;;;;;;2.68;78.24;96211.34;5116300;28;20044;-63
2023/11/21 00:52:54;;;;;;;1999.90;999.90;;;;;;;2.67;77.46;96218.22;5116416;28;20043;-62
2023/11/21 00:55:22;;;;;;;1999.90;999.90;;;;;;;2.61;77.36;96218.28;5116246;28;20052;-63
2023/11/21 00:57:49;;;;;;;1999.90;999.90;;;;;;;2.48;77.58;96218.44;5116096;28;20054;-63
2023/11/21 01:00:17;;;;;;;1999.90;999.90;;;;;;;2.43;78.37;96209.88;5116026;28;20043;-63
2023/11/21 01:02:45;;;;;;;1999.90;999.90;;;;;;;2.42;78.48;96210.75;5116087;28;20047;-62
2023/11/21 01:05:12;;;;;;;1999.90;999.90;;;;;;;2.36;78.78;96203.06;5116080;28;20497;-62
2023/11/21 01:07:39;;;;;;;1999.90;999.90;;;;;;;2.26;79.17;96194.59;5115809;27;20047;-65
2023/11/21 01:10:07;;;;;;;1999.90;999.90;;;;;;;2.27;79.20;96201.44;5116034;28;20048;-64
2023/11/21 01:12:36;;;;;;;1999.90;999.90;;;;;;;2.25;79.31;96192.84;5116264;28;20101;-63
2023/11/21 01:15:04;;;;;;;1999.90;999.90;;;;;;;2.17;79.39;96192.94;5115791;28;20043;-65
2023/11/21 01:17:34;;;;;;;1999.90;999.90;;;;;;;2.16;79.68;96195.56;5115632;28;20047;-62
2023/11/21 01:20:02;;;;;;;1999.90;999.90;;;;;;;2.15;79.79;96192.09;5114978;28;20515;-65
2023/11/21 01:22:29;;;;;;;1999.90;999.90;;;;;;;2.09;79.76;96190.44;5115751;28;20051;-62
2023/11/21 01:24:57;;;;;;;1999.90;999.90;;;;;;;2.12;80.02;96182.66;5115824;28;20054;-62
2023/11/21 01:27:24;;;;;;;1999.90;999.90;;;;;;;2.09;79.84;96185.28;5115514;28;20044;-65
2023/11/21 01:29:53;;;;;;;1999.90;999.90;;;;;;;2.09;79.96;96184.41;5115581;28;20078;-62
2023/11/21 01:32:20;;;;;;;1999.90;999.90;;;;;;;2.15;79.33;96186.94;5115530;28;20408;-64
2023/11/21 01:34:48;;;;;;;1999.90;999.90;;;;;;;2.09;79.63;96184.41;5115460;27;20052;-61
2023/11/21 01:37:17;;;;;;;1999.90;999.90;;;;;;;2.03;79.64;96190.50;5115268;28;20040;-63
2023/11/21 01:39:44;;;;;;;1999.90;999.90;;;;;;;2.05;79.70;96183.59;5115203;28;20056;-62
2023/11/21 01:42:12;;;;;;;1999.90;999.90;;;;;;;2.05;79.51;96175.00;5115307;28;20481;-61
2023/11/21 01:44:40;;;;;;;1999.90;999.90;;;;;;;2.00;79.22;96173.31;5115253;28;20425;-62
2023/11/21 01:47:10;;;;;;;1999.90;999.90;;;;;;;1.96;79.36;96174.19;5115214;27;20048;-63
2023/11/21 01:49:37;;;;;;;1999.90;999.90;;;;;;;1.91;79.37;96172.53;5115228;28;20090;-62
2023/11/21 01:52:05;;;;;;;1999.90;999.90;;;;;;;1.89;79.69;96180.28;5115420;28;20112;-65
2023/11/21 01:54:33;;;;;;;1999.90;999.90;;;;;;;1.82;79.57;96178.66;5115068;28;20105;-63
2023/11/21 01:57:02;;;;;;;1999.90;999.90;;;;;;;1.84;79.98;96171.75;5114927;28;20116;-64
2023/11/21 01:59:36;;;;;;;1999.90;999.90;;;;;;;1.81;80.01;96166.63;5114951;28;20043;-61
2023/11/21 02:02:04;;;;;;;1999.90;999.90;;;;;;;1.81;80.20;96177.81;5114933;28;20100;-64
2023/11/21 02:04:33;;;;;;;1999.90;999.90;;;;;;;1.82;80.04;96176.94;5114888;28;20040;-65
2023/11/21 02:07:01;;;;;;;1999.90;999.90;;;;;;;1.75;80.48;96170.13;5114765;28;20135;-62
2023/11/21 02:09:29;;;;;;;1999.90;999.90;;;;;;;1.68;80.72;96169.31;5114704;28;20054;-62
2023/11/21 02:11:58;;;;;;;1999.90;999.90;;;;;;;1.75;81.09;96167.53;5114654;28;20079;-64
2023/11/21 02:14:26;;;;;;;1999.90;999.90;;;;;;;1.68;81.29;96166.72;5114950;28;20047;-64
2023/11/21 02:16:53;;;;;;;1999.90;999.90;;;;;;;1.65;81.14;96164.16;5114651;28;20048;-64
2023/11/21 02:19:25;;;;;;;1999.90;999.90;;;;;;;1.51;81.50;96159.97;5114577;28;20097;-63
2023/11/21 02:21:54;;;;;;;1999.90;999.90;;;;;;;1.56;81.87;96159.94;5114512;28;20108;-64
2023/11/21 02:24:23;;;;;;;1999.90;999.90;;;;;;;1.60;81.97;96163.38;5114350;28;20492;-62
2023/11/21 02:26:52;;;;;;;1999.90;999.90;;;;;;;1.59;81.84;96161.63;5114460;28;20054;-63
2023/11/21 02:29:21;;;;;;;1999.90;999.90;;;;;;;1.58;81.97;96157.38;5114543;28;20052;-63
2023/11/21 02:31:49;;;;;;;1999.90;999.90;;;;;;;1.57;81.98;96164.25;5114316;28;20039;-64
2023/11/21 02:34:16;;;;;;;1999.90;999.90;;;;;;;1.62;81.95;96165.06;5114467;28;20051;-61
2023/11/21 02:36:43;;;;;;;1999.90;999.90;;;;;;;1.59;82.07;96161.63;5114331;28;20059;-62
2023/11/21 02:39:10;;;;;;;1999.90;999.90;;;;;;;1.58;82.23;96153.06;5114198;28;20125;-65
2023/11/21 02:41:39;;;;;;;1999.90;999.90;;;;;;;1.59;82.27;96151.31;5114381;28;20393;-65
2023/11/21 02:44:07;;;;;;;1999.90;999.90;;;;;;;1.60;82.20;96146.16;5114087;28;20049;-62
2023/11/21 02:46:34;;;;;;;1999.90;999.90;;;;;;;1.58;82.24;96152.19;5114154;28;20040;-64
2023/11/21 02:49:01;;;;;;;1999.90;999.90;;;;;;;1.53;82.34;96148.81;5114215;28;20048;-63
2023/11/21 02:51:28;;;;;;;1999.90;999.90;;;;;;;1.59;82.37;96151.31;5113883;28;20493;-64
2023/11/21 02:53:58;;;;;;;1999.90;999.90;;;;;;;1.64;82.10;96158.19;5113967;28;20090;-62
2023/11/21 02:56:26;;;;;;;1999.90;999.90;;;;;;;1.66;81.58;96163.31;5113790;28;20054;-63
2023/11/21 02:58:56;;;;;;;1999.90;999.90;;;;;;;1.68;81.12;96160.72;5113807;28;20051;-62
2023/11/21 03:01:24;;;;;;;;;;;;;;;1.73;81.06;96166.69;5114313;28;20040;-64
2023/11/21 03:03:51;;;;;;;1999.90;999.90;;;;;;;1.71;80.91;96165.84;5113680;28;19920;-65
2023/11/21 03:06:18;;;;;;;1999.90;999.90;;;;;;;1.68;81.03;96163.31;5113619;28;20120;-63
2023/11/21 03:08:47;;;;;;;1999.90;999.90;;;;;;;1.68;81.26;96161.56;5113824;28;20043;-62
2023/11/21 03:11:14;;;;;;;1999.90;999.90;;;;;;;1.67;81.08;96170.19;5113732;28;20061;-65
2023/11/21 03:13:42;;;;;;;1999.90;999.90;;;;;;;1.53;81.32;96174.59;5113689;28;21191;-63
2023/11/21 03:16:11;;;;;;;1999.90;999.90;;;;;;;1.57;82.15;96174.56;5113560;28;20058;-63
2023/11/21 03:18:38;;;;;;;1999.90;999.90;;;;;;;1.62;82.21;96174.50;5113559;28;20051;-64
2023/11/21 03:21:06;;;;;;;1999.90;999.90;;;;;;;1.62;81.94;96175.38;5113504;28;20449;-61
2023/11/21 03:23:33;;;;;;;1999.90;999.90;;;;;;;1.61;81.71;96177.97;5113848;28;20040;-60
2023/11/21 03:26:01;;;;;;;1999.90;999.90;;;;;;;1.58;82.16;96171.13;5113469;28;20405;-64
2023/11/21 03:28:29;;;;;;;1999.90;999.90;;;;;;;1.54;82.24;96179.75;5113578;28;20066;-63
2023/11/21 03:30:57;;;;;;;1999.90;999.90;;;;;;;1.56;82.28;96178.00;5113435;28;20071;-64
2023/11/21 03:33:25;;;;;;;1999.90;999.90;;;;;;;1.53;82.43;96178.03;5113479;28;20052;-64
2023/11/21 03:35:53;;;;;;;1999.90;999.90;;;;;;;1.50;83.07;96178.91;5113544;28;20562;-64
2023/11/21 03:38:21;;;;;;;1999.90;999.90;;;;;;;1.51;82.59;96177.19;5113664;28;20165;-64
2023/11/21 03:40:48;;;;;;;1999.90;999.90;;;;;;;1.51;82.48;96178.03;5113492;28;20043;-62
2023/11/21 03:43:15;;;;;;;1999.90;999.90;;;;;;;1.50;82.16;96178.03;5116674;28;20105;-65
2023/11/21 03:45:42;;;;;;;1999.90;999.90;;;;;;;1.50;82.65;96180.63;5117746;28;20114;-64
2023/11/21 03:48:09;;;;;;;1999.90;999.90;;;;;;;1.50;82.91;96173.75;5117684;28;20062;-65
2023/11/21 03:50:38;;;;;;;1999.90;999.90;;;;;;;1.53;82.63;96183.19;5117431;28;20139;-63
2023/11/21 03:53:05;;;;;;;1999.90;999.90;;;;;;;1.48;82.95;96187.53;5117468;28;20058;-65
2023/11/21 03:55:32;;;;;;;1999.90;999.90;;;;;;;1.46;83.25;96178.94;5117481;28;20147;-64
2023/11/21 03:57:59;;;;;;;1999.90;999.90;;;;;;;1.47;83.06;96178.06;5117317;28;20093;-64
2023/11/21 04:00:27;;;;;;;1999.90;999.90;;;;;;;1.44;83.85;96186.69;5117200;28;20079;-65
2023/11/21 04:02:55;;;;;;;1999.90;999.90;;;;;;;1.50;83.84;96181.50;5117384;27;20131;-63
2023/11/21 04:05:22;;;;;;;1999.90;999.90;;;;;;;1.50;83.90;96181.50;5117242;28;20059;-62
2023/11/21 04:07:52;;;;;;;1999.90;999.90;;;;;;;1.49;84.43;96184.06;5116939;28;20090;-63
2023/11/21 04:10:19;;;;;;;1999.90;999.90;;;;;;;1.53;83.49;96192.66;5117058;28;20488;-63
2023/11/21 04:12:46;;;;;;;1999.90;999.90;;;;;;;1.52;83.44;96199.53;5116995;27;20079;-62
2023/11/21 04:15:14;;;;;;;1999.90;999.90;;;;;;;1.49;83.50;96194.38;5116945;28;20477;-63
2023/11/21 04:17:41;;;;;;;1999.90;999.90;;;;;;;1.51;84.25;96197.81;5116867;27;20105;-61
2023/11/21 04:20:09;;;;;;;1999.90;999.90;;;;;;;1.47;84.11;96188.38;5116932;28;20544;-62
2023/11/21 04:22:40;;;;;;;1999.90;999.90;;;;;;;1.35;84.74;96194.47;5116796;28;20047;-62
2023/11/21 04:25:10;;;;;;;1999.90;999.90;;;;;;;1.37;84.42;96193.63;5116833;28;20051;-60
2023/11/21 04:27:37;;;;;;;1999.90;999.90;;;;;;;1.33;83.99;96191.06;5116802;28;20429;-63
2023/11/21 04:30:06;;;;;;;1999.90;999.90;;;;;;;1.25;85.39;96193.69;5116734;28;20133;-63
2023/11/21 04:32:33;;;;;;;1999.90;999.90;;;;;;;1.29;85.71;96195.38;5116679;28;20105;-61
2023/11/21 04:35:00;;;;;;;1999.90;999.90;;;;;;;1.31;85.59;96196.25;5116686;28;20063;-65
2023/11/21 04:37:27;;;;;;;1999.90;999.90;;;;;;;1.35;85.96;96190.19;5116498;28;20128;-62
2023/11/21 04:39:55;;;;;;;1999.90;999.90;;;;;;;1.35;86.10;96194.47;5116392;28;20083;-64
2023/11/21 04:42:23;;;;;;;1999.90;999.90;;;;;;;1.39;85.32;96193.63;5116390;28;20516;-64
2023/11/21 04:44:52;;;;;;;1999.90;999.90;;;;;;;1.41;83.97;96193.59;5116772;28;20126;-63
2023/11/21 04:47:19;;;;;;;1999.90;999.90;;;;;;;1.35;83.97;96197.06;5116338;28;20048;-61
2023/11/21 04:49:48;;;;;;;1999.90;999.90;;;;;;;1.26;85.03;96188.53;5116290;28;20569;-62
2023/11/21 04:52:15;;;;;;;1999.90;999.90;;;;;;;1.26;85.77;96205.72;5116385;28;20105;-62
2023/11/21 04:54:42;;;;;;;1999.90;999.90;;;;;;;1.32;85.70;96200.50;5114995;28;20062;-61
2023/11/21 04:57:11;;;;;;;1999.90;999.90;;;;;;;1.28;85.66;96196.25;5116185;28;20493;-63
2023/11/21 04:59:40;;;;;;;1999.90;999.90;;;;;;;1.33;85.45;96201.38;5116004;28;20055;-64
2023/11/21 05:02:08;;;;;;;1999.90;999.90;;;;;;;1.34;85.35;96203.94;5116146;28;20105;-63
2023/11/21 05:04:36;;;;;;;1999.90;999.90;;;;;;;1.31;85.62;96197.94;5115923;28;20044;-61
2023/11/21 05:07:07;;;;;;;1999.90;999.90;;;;;;;1.35;85.43;96207.38;5115825;28;20075;-64
2023/11/21 05:09:35;;;;;;;1999.90;999.90;;;;;;;1.36;85.48;96219.41;5116151;28;20048;-64
2023/11/21 05:12:03;;;;;;;1999.90;999.90;;;;;;;1.43;85.76;96225.38;5115871;28;20558;-63
2023/11/21 05:14:33;;;;;;;1999.90;999.90;;;;;;;1.47;85.13;96230.50;5115831;28;20050;-62
2023/11/21 05:17:04;;;;;;;1999.90;999.90;;;;;;;1.53;85.59;96234.75;5115953;28;20047;-64
2023/11/21 05:19:32;;;;;;;1999.90;999.90;;;;;;;1.54;85.58;96233.91;5115436;28;20055;-61
2023/11/21 05:22:00;;;;;;;1999.90;999.90;;;;;;;1.59;86.63;96236.41;5115700;28;20482;-63
2023/11/21 05:24:28;;;;;;;1999.90;999.90;;;;;;;1.64;86.94;96232.09;5115586;28;20043;-62
2023/11/21 05:26:55;;;;;;;1999.90;999.90;;;;;;;1.67;87.28;96221.75;5115490;28;20044;-64
2023/11/21 05:29:23;;;;;;;1999.90;999.90;;;;;;;1.66;87.87;96209.75;5115601;28;20051;-63
2023/11/21 05:31:51;;;;;;;1999.90;999.90;;;;;;;1.71;88.26;96212.25;5115453;28;20048;-64
2023/11/21 05:34:20;;;;;;;1999.90;999.90;;;;;;;1.79;88.94;96213.06;5115587;28;20050;-64
2023/11/21 05:36:47;;;;;;;1999.90;999.90;;;;;;;1.88;89.13;96218.16;5115512;28;20552;-62
2023/11/21 05:39:17;;;;;;;1999.90;999.90;;;;;;;1.97;88.92;96213.78;5115247;28;20092;-62
2023/11/21 05:41:44;;;;;;;1999.90;999.90;;;;;;;2.06;89.92;96228.31;5115398;28;20060;-62
2023/11/21 05:44:14;;;;;;;1999.90;999.90;;;;;;;2.24;90.34;96224.72;5115257;28;20280;-61
2023/11/21 05:46:43;;;;;;;1999.90;999.90;;;;;;;2.35;89.90;96222.84;5115401;27;20044;-62
2023/11/21 05:49:10;;;;;;;1999.90;999.90;;;;;;;2.45;89.23;96226.22;5115110;28;20096;-63
2023/11/21 05:51:39;;;;;;;1999.90;999.90;;;;;;;2.50;88.70;96227.00;5115186;28;20050;-63
2023/11/21 05:54:07;;;;;;;1999.90;999.90;;;;;;;2.54;88.50;96225.25;5115158;28;20051;-65
2023/11/21 05:56:35;;;;;;;1999.90;999.90;;;;;;;2.65;88.47;96225.16;5115009;28;20039;-63
2023/11/21 05:59:03;;;;;;;1999.90;999.90;;;;;;;2.72;88.58;96231.09;5115031;28;20091;-64
2023/11/21 06:01:30;;;;;;;1999.90;999.90;;;;;;;2.81;88.16;96225.81;5114844;28;20052;-63
2023/11/21 06:03:57;;;;;;;1999.90;999.90;;;;;;;2.83;88.22;96231.78;5114805;28;20044;-63
2023/11/21 06:06:26;;;;;;;1999.90;999.90;;;;;;;2.94;88.86;96225.63;5114377;28;20470;-62
2023/11/21 06:08:55;;;;;;;1999.90;999.90;;;;;;;2.99;88.80;96231.63;5114823;28;20058;-65
2023/11/21 06:11:22;;;;;;;1999.90;999.90;;;;;;;3.08;88.54;96228.91;5114790;28;20670;-62
2023/11/21 06:13:49;;;;;;;1999.90;999.90;;;;;;;3.20;88.92;96221.88;5114691;28;20044;-63
2023/11/21 06:16:18;;;;;;;1999.90;999.90;;;;;;;3.35;88.80;96219.06;5114602;28;20044;-62
2023/11/21 06:18:46;;;;;;;1999.90;999.90;;;;;;;3.54;88.43;96221.38;5114523;28;20127;-62
2023/11/21 06:21:16;;;;;;;1999.90;999.90;;;;;;;3.75;88.29;96224.50;5114462;28;20428;-64
2023/11/21 06:23:43;;;;;;;1999.90;999.90;;;;;;;3.98;88.43;96213.78;5114449;28;20485;-65
2023/11/21 06:26:12;;;;;;;1999.90;999.90;;;;;;;4.36;88.61;96220.91;5114558;28;20050;-62
2023/11/21 06:28:39;;;;;;;1999.90;999.90;;;;;;;4.50;85.61;96223.22;5114493;28;20055;-62
2023/11/21 06:31:07;;;;;;;1999.90;999.90;;;;;;;4.68;84.55;96235.84;5114350;28;20577;-61
2023/11/21 06:33:34;;;;;;;1999.90;999.90;;;;;;;5.04;84.17;96242.06;5114314;28;20477;-65
2023/11/21 06:36:02;;;;;;;1999.90;999.90;;;;;;;5.74;81.52;96234.47;5114149;28;20493;-62
2023/11/21 06:38:30;;;;;;;1999.90;999.90;;;;;;;6.53;79.23;96231.72;5114145;28;20075;-64
2023/11/21 06:40:58;;;;;;;1999.90;999.90;;;;;;;7.70;74.73;96243.94;5114195;28;20047;-65
2023/11/21 06:43:26;;;;;;;1999.90;999.90;;;;;;;9.02;68.02;96258.72;5114171;27;20057;-64
2023/11/21 06:45:54;;;;;;;1999.90;999.90;;;;;;;10.15;63.96;96258.81;5114153;28;20093;-65
2023/11/21 06:48:21;;;;;;;1999.90;999.90;;;;;;;10.91;58.82;96260.03;5114121;28;20101;-62
2023/11/21 06:50:48;;;;;;;1999.90;999.90;;;;;;;11.47;57.34;96257.53;5114234;28;20048;-61
2023/11/21 06:53:16;;;;;;;1999.90;999.90;;;;;;;12.44;54.41;96262.63;5113897;28;20047;-61
2023/11/21 06:55:43;;;;;;;1999.90;999.90;;;;;;;13.52;51.01;96260.63;5114023;28;20509;-64
2023/11/21 06:58:10;;;;;;;1999.90;999.90;;;;;;;14.63;48.16;96260.53;5113979;28;20489;-64
2023/11/21 07:00:39;;;;;;;1999.90;999.90;;;;;;;15.74;44.63;96259.19;5113950;27;20069;-66
2023/11/21 07:03:06;;;;;;;1999.90;999.90;;;;;;;16.80;42.74;96254.19;5113989;28;20051;-64
2023/11/21 07:05:37;;;;;;;1999.90;999.90;;;;;;;17.79;40.99;96262.34;5113668;28;20059;-65
2023/11/21 07:08:07;;;;;;;1999.90;999.90;;;;;;;18.82;39.11;96264.66;5073233;28;20131;-62
2023/11/21 07:10:34;;;;;;;1999.90;999.90;;;;;;;20.16;35.69;96267.56;5073151;28;20048;-63
2023/11/21 07:13:02;;;;;;;1999.90;999.90;;;;;;;21.13;33.79;96269.44;5073124;28;20053;-64
2023/11/21 07:15:29;;;;;;;1999.90;999.90;;;;;;;21.53;32.56;96268.66;5073179;28;20048;-61
2023/11/21 07:17:58;;;;;;;1999.90;999.90;;;;;;;21.68;31.04;96266.50;5072364;28;20045;-65
2023/11/21 07:20:25;;;;;;;1999.90;999.90;;;;;;;22.04;29.67;96262.53;5072970;28;20048;-63
2023/11/21 07:22:52;;;;;;;1999.90;999.90;;;;;;;22.51;29.49;96259.22;5073182;28;20044;-62
2023/11/21 07:25:22;;;;;;;1999.90;999.90;;;;;;;23.18;28.13;96260.28;5072894;28;20553;-61
2023/11/21 07:27:49;;;;;;;1999.90;999.90;;;;;;;23.25;29.05;96261.38;5072888;28;20055;-63
2023/11/21 07:30:17;;;;;;;1999.90;999.90;;;;;;;23.07;28.88;96259.47;5073085;28;20047;-64
2023/11/21 07:32:47;;;;;;;1999.90;999.90;;;;;;;23.28;28.43;96255.75;5072841;28;20506;-63
2023/11/21 07:35:16;;;;;;;1999.90;999.90;;;;;;;23.30;28.01;96258.28;5073028;28;20460;-62
2023/11/21 07:37:44;;;;;;;1999.90;999.90;;;;;;;23.11;28.58;96268.00;5072889;28;20525;-64
2023/11/21 07:40:13;;;;;;;1999.90;999.90;;;;;;;23.74;27.47;96271.06;5072861;28;20056;-62
2023/11/21 07:42:42;;;;;;;1999.90;999.90;;;;;;;23.83;27.96;96275.50;5072920;28;20055;-61
2023/11/21 07:45:11;;;;;;;1999.90;999.90;;;;;;;24.38;26.85;96270.28;5072818;28;20048;-63
2023/11/21 07:47:39;;;;;;;1999.90;999.90;;;;;;;24.58;26.97;96264.78;5072725;28;20041;-62
2023/11/21 07:50:08;;;;;;;1999.90;999.90;;;;;;;25.16;25.95;96259.09;5072793;28;20167;-63
2023/11/21 07:52:37;;;;;;;1999.90;999.90;;;;;;;25.57;25.49;96263.81;5072855;28;20052;-61
2023/11/21 07:55:05;;;;;;;1999.90;999.90;;;;;;;26.08;24.64;96261.19;5072732;28;20474;-63
2023/11/21 07:57:32;;;;;;;1999.90;999.90;;;;;;;26.85;24.55;96259.31;5072930;28;20049;-64
2023/11/21 08:00:00;;;;;;;43.00;40.22;;;;;;;27.53;23.36;96260.06;5072804;28;20102;-63
2023/11/21 08:02:27;;;;;;;41.97;39.28;;;;;;;28.08;22.45;96255.66;5072616;28;20052;-61
2023/11/21 08:04:56;;;;;;;40.83;38.13;;;;;;;28.26;22.12;96254.53;5072599;28;20044;-63
2023/11/21 08:07:23;;;;;;;40.97;38.25;;;;;;;27.71;22.01;96258.03;5102193;28;20082;-62
2023/11/21 08:09:52;;;;;;;39.72;37.45;;;;;;;26.69;22.89;96256.63;5113143;28;20044;-60
2023/11/21 08:12:20;;;;;;;39.65;37.15;;;;;;;26.04;24.15;96243.78;5113225;28;20101;-65
2023/11/21 08:14:47;;;;;;;38.90;36.28;;;;;;;26.00;23.96;96245.09;5112989;28;20069;-64
2023/11/21 08:17:14;;;;;;;38.95;36.70;;;;;;;25.96;23.65;96249.94;5113001;28;20060;-64
2023/11/21 08:19:41;;;;;;;38.40;36.20;;;;;;;25.53;24.38;96241.91;5113026;28;20133;-61
2023/11/21 08:22:09;;;;;;;37.50;35.20;;;;;;;24.86;25.25;96241.44;5112864;28;20138;-60
2023/11/21 08:24:37;;;;;;;42.70;40.25;;;;;;;24.08;25.83;96237.56;5113090;28;20122;-64
2023/11/21 08:27:06;;;;;;;49.08;46.30;;;;;;;23.41;26.52;96235.94;5113041;28;20122;-61
2023/11/21 08:29:34;;;;;;;1999.90;999.90;;;;;;;22.68;27.56;96235.53;5116429;28;20060;-61
2023/11/21 08:32:02;;;;;;;1999.90;999.90;;;;;;;22.06;28.18;96244.59;5116645;28;20092;-60
2023/11/21 08:34:29;;;;;;;1999.90;999.90;;;;;;;21.52;28.64;96236.88;5116701;28;20048;-62
2023/11/21 08:36:57;;;;;;;1999.90;999.90;;;;;;;20.91;29.70;96237.56;5116508;28;20047;-65
2023/11/21 08:39:24;;;;;;;1999.90;999.90;;;;;;;20.44;30.84;96227.28;5116434;28;20052;-65
2023/11/21 08:41:51;;;;;;;1999.90;999.90;;;;;;;20.05;31.33;96230.44;5116694;28;20113;-61
2023/11/21 08:44:20;;;;;;;1999.90;999.90;;;;;;;19.67;32.41;96222.78;5116450;28;20047;-61
2023/11/21 08:46:47;;;;;;;1999.90;999.90;;;;;;;19.35;33.42;96215.56;5116434;27;20052;-65
2023/11/21 08:49:15;;;;;;;1999.90;999.90;;;;;;;18.89;33.96;96214.66;5116422;28;20071;-64
2023/11/21 08:51:42;;;;;;;1999.90;999.90;;;;;;;18.58;34.66;96209.94;5116464;28;20079;-61
2023/11/21 08:54:09;;;;;;;1999.90;999.90;;;;;;;18.49;35.47;96205.31;5116268;28;20122;-63
2023/11/21 08:56:36;;;;;;;1999.90;999.90;;;;;;;18.37;35.90;96199.16;5116151;28;20048;-63
2023/11/21 08:59:04;;;;;;;1999.90;999.90;;;;;;;18.29;36.46;96197.06;5116203;28;20051;-64
2023/11/21 09:01:32;;;;;;;1999.90;999.90;;;;;;;18.17;37.67;96189.09;5116264;28;20056;-62
2023/11/21 09:03:59;;;;;;;1999.90;999.90;;;;;;;18.10;38.48;96186.97;5116112;28;20047;-64
2023/11/21 09:06:26;;;;;;;1999.90;999.90;;;;;;;18.05;39.49;96182.88;5115895;28;20075;-64
2023/11/21 09:08:53;;;;;;;1999.90;999.90;;;;;;;17.87;39.72;96177.13;5116167;28;20129;-62
2023/11/21 09:11:21;;;;;;;1999.90;999.90;;;;;;;17.78;40.71;96177.81;5116000;28;20043;-64
2023/11/21 09:13:48;;;;;;;1999.90;999.90;;;;;;;17.81;40.70;96175.81;5116092;28;20055;-62
2023/11/21 09:16:16;;;;;;;1999.90;999.90;;;;;;;17.49;41.18;96173.69;5115820;28;20052;-60
2023/11/21 09:18:45;;;;;;;1999.90;999.90;;;;;;;17.43;41.50;96169.69;5115642;28;20508;-64
2023/11/21 09:21:12;;;;;;;1999.90;999.90;;;;;;;17.57;41.87;96165.19;5115692;28;20087;-63
2023/11/21 09:23:39;;;;;;;1999.90;999.90;;;;;;;17.43;42.02;96163.56;5115788;28;20055;-63
2023/11/21 09:26:06;;;;;;;1999.90;999.90;;;;;;;17.43;42.00;96161.75;5115653;28;20382;-62
2023/11/21 09:28:33;;;;;;;1999.90;999.90;;;;;;;17.35;42.44;96160.63;5115647;27;20051;-65
2023/11/21 09:31:03;;;;;;;1999.90;999.90;;;;;;;16.98;44.47;96158.75;5115461;28;20500;-63
2023/11/21 09:33:31;;;;;;;1999.90;999.90;;;;;;;16.92;44.39;96158.22;5115620;28;20056;-63
2023/11/21 09:35:59;;;;;;;1999.90;999.90;;;;;;;16.77;46.10;96146.09;5115379;28;20043;-62
2023/11/21 09:38:29;;;;;;;1999.90;999.90;;;;;;;16.49;46.59;96150.63;5115453;28;20048;-63
2023/11/21 09:40:58;;;;;;;1999.90;999.90;;;;;;;16.48;46.33;96141.88;5114611;28;20062;-61
2023/11/21 09:43:29;;;;;;;1999.90;999.90;;;;;;;16.45;46.59;96139.44;5115410;28;20055;-64
2023/11/21 09:46:00;;;;;;;1999.90;999.90;;;;;;;16.39;47.28;96132.78;5115216;28;20448;-64
2023/11/21 09:48:28;;;;;;;1999.90;999.90;;;;;;;16.31;46.36;96135.09;5115184;28;20560;-61
2023/11/21 09:50:55;;;;;;;1999.90;999.90;;;;;;;16.02;48.08;96135.28;5115160;28;20122;-62
2023/11/21 09:53:24;;;;;;;1999.90;999.90;;;;;;;15.69;48.89;96133.88;5115154;28;20100;-64
2023/11/21 09:55:53;;;;;;;1999.90;999.90;;;;;;;15.60;48.67;96125.63;5115117;28;20477;-64
2023/11/21 09:58:22;;;;;;;1999.90;999.90;;;;;;;15.72;48.32;96116.06;5114811;28;20105;-62
2023/11/21 10:00:54;;;;;;;1999.90;999.90;;;;;;;15.69;48.90;96118.91;5114697;28;20051;-61
2023/11/21 10:03:21;;;;;;;1999.90;999.90;;;;;;;15.69;48.40;96123.34;5115081;28;20148;-61
2023/11/21 10:05:51;;;;;;;1999.90;999.90;;;;;;;15.63;48.23;96111.41;5114574;28;20039;-62
2023/11/21 10:08:20;;;;;;;1999.90;999.90;;;;;;;15.79;47.96;96116.50;5114897;28;20055;-64
2023/11/21 10:10:52;;;;;;;1999.90;999.90;;;;;;;15.86;46.79;96106.41;5114754;27;20104;-62
2023/11/21 10:13:20;;;;;;;1999.90;999.90;;;;;;;15.84;47.45;96117.06;5114803;28;20066;-64
2023/11/21 10:15:51;;;;;;;1999.90;999.90;;;;;;;15.84;47.93;96111.78;5114747;28;20051;-61
2023/11/21 10:18:18;;;;;;;1999.90;999.90;;;;;;;15.79;47.77;96106.81;5114656;28;20043;-61
2023/11/21 10:20:51;;;;;;;1999.90;999.90;;;;;;;15.70;47.84;96101.28;5114498;28;20398;-62
2023/11/21 10:23:20;;;;;;;1999.90;999.90;;;;;;;15.60;48.60;96103.69;5114625;28;20047;-64
2023/11/21 10:25:50;;;;;;;1999.90;999.90;;;;;;;15.56;48.38;96100.41;5114559;28;20567;-61
2023/11/21 10:28:18;;;;;;;1999.90;999.90;;;;;;;15.46;49.06;96094.03;5114486;28;20040;-64
2023/11/21 10:30:46;;;;;;;1999.90;999.90;;;;;;;15.38;49.68;96094.56;5114432;28;20039;-63
2023/11/21 10:33:13;;;;;;;1999.90;999.90;;;;;;;15.38;49.31;96099.81;5114439;28;20538;-63
2023/11/21 10:35:46;;;;;;;1999.90;999.90;;;;;;;15.25;48.78;96097.13;5114261;28;20048;-62
2023/11/21 10:38:14;;;;;;;1999.90;999.90;;;;;;;15.10;49.32;96096.31;5114214;28;20039;-63
2023/11/21 10:40:42;;;;;;;1999.90;999.90;;;;;;;14.95;49.70;96098.97;5114221;28;20052;-64
2023/11/21 10:43:11;;;;;;;1999.90;999.90;;;;;;;14.84;49.29;96088.28;5114178;28;20094;-63
2023/11/21 10:45:38;;;;;;;1999.90;999.90;;;;;;;14.90;49.85;96096.63;5114088;28;20108;-63
2023/11/21 10:48:08;;;;;;;1999.90;999.90;;;;;;;14.68;50.28;96080.44;5114114;28;20062;-61
2023/11/21 10:50:36;;;;;;;1999.90;999.90;;;;;;;14.73;50.12;96079.22;5113985;28;20063;-61
2023/11/21 10:53:04;;;;;;;1999.90;999.90;;;;;;;14.73;50.10;96078.38;5113310;28;20481;-61
2023/11/21 10:55:32;;;;;;;1999.90;999.90;;;;;;;14.72;49.89;96069.63;5113982;28;20047;-61
2023/11/21 10:58:02;;;;;;;1999.90;999.90;;;;;;;14.66;49.64;96073.47;5113945;28;20048;-62
2023/11/21 11:00:31;;;;;;;1999.90;999.90;;;;;;;14.54;49.76;96074.22;5113920;28;20039;-62
2023/11/21 11:02:59;;;;;;;1999.90;999.90;;;;;;;14.46;49.80;96073.88;5113750;28;20489;-60